sensor_id;sensor_type;location;lat;lon;timestamp;P1;durP1;ratioP1;P2;durP2;ratioP2
18657;SDS011;9458;50.942;5.074;2022-11-23T10:47:41;3.90;;;1.30;;
18657;SDS011;9458;50.942;5.074;2022-11-23T15:04:22;2.33;;;1.20;;
18657;SDS011;9458;50.942;5.074;2022-11-23T15:06:53;1.33;;;1.10;;
18657;SDS011;9458;50.942;5.074;2022-11-23T15:09:30;3.28;;;2.05;;
18657;SDS011;9458;50.942;5.074;2022-11-23T15:12:06;3.30;;;1.10;;
18657;SDS011;9458;50.942;5.074;2022-11-23T15:14:45;2.40;;;1.42;;
18657;SDS011;9458;50.942;5.074;2022-11-23T15:17:14;2.42;;;1.35;;
18657;SDS011;9458;50.942;5.074;2022-11-23T15:19:46;3.90;;;1.30;;
18657;SDS011;9458;50.942;5.074;2022-11-23T15:22:20;2.90;;;1.60;;
18657;SDS011;9458;50.942;5.074;2022-11-23T15:24:49;3.63;;;1.50;;
18657;SDS011;9458;50.942;5.074;2022-11-23T15:27:19;4.45;;;1.60;;
18657;SDS011;9458;50.942;5.074;2022-11-23T15:29:51;3.40;;;1.40;;
18657;SDS011;9458;50.942;5.074;2022-11-23T15:32:22;3.10;;;1.33;;
18657;SDS011;9458;50.942;5.074;2022-11-23T15:34:54;2.83;;;1.40;;
18657;SDS011;9458;50.942;5.074;2022-11-23T15:37:24;1.90;;;1.60;;
18657;SDS011;9458;50.942;5.074;2022-11-23T15:39:53;4.10;;;1.70;;
18657;SDS011;9458;50.942;5.074;2022-11-23T15:42:22;2.75;;;1.50;;
18657;SDS011;9458;50.942;5.074;2022-11-23T15:44:53;3.47;;;1.65;;
18657;SDS011;9458;50.942;5.074;2022-11-23T15:47:21;3.40;;;1.45;;
18657;SDS011;9458;50.942;5.074;2022-11-23T15:49:54;2.78;;;1.27;;
18657;SDS011;9458;50.942;5.074;2022-11-23T15:52:27;4.43;;;1.70;;
18657;SDS011;9458;50.942;5.074;2022-11-23T15:55:01;4.93;;;2.80;;
18657;SDS011;9458;50.942;5.074;2022-11-23T15:57:30;3.20;;;2.03;;
18657;SDS011;9458;50.942;5.074;2022-11-23T15:59:59;3.80;;;2.03;;
18657;SDS011;9458;50.942;5.074;2022-11-23T16:02:29;3.90;;;2.40;;
18657;SDS011;9458;50.942;5.074;2022-11-23T16:05:08;6.95;;;2.22;;
18657;SDS011;9458;50.942;5.074;2022-11-23T16:07:49;5.28;;;2.10;;
18657;SDS011;9458;50.942;5.074;2022-11-23T16:10:19;4.70;;;2.42;;
18657;SDS011;9458;50.942;5.074;2022-11-23T16:12:49;8.25;;;3.40;;
18657;SDS011;9458;50.942;5.074;2022-11-23T16:15:34;3.03;;;2.13;;
18657;SDS011;9458;50.942;5.074;2022-11-23T16:18:16;3.03;;;2.22;;
18657;SDS011;9458;50.942;5.074;2022-11-23T16:20:49;8.57;;;3.20;;
18657;SDS011;9458;50.942;5.074;2022-11-23T16:23:21;3.42;;;2.13;;
18657;SDS011;9458;50.942;5.074;2022-11-23T16:25:55;4.85;;;2.13;;
18657;SDS011;9458;50.942;5.074;2022-11-23T16:28:26;3.30;;;1.85;;
18657;SDS011;9458;50.942;5.074;2022-11-23T16:30:56;4.22;;;2.17;;
18657;SDS011;9458;50.942;5.074;2022-11-23T16:33:24;2.97;;;2.33;;
18657;SDS011;9458;50.942;5.074;2022-11-23T16:35:55;3.40;;;2.50;;
18657;SDS011;9458;50.942;5.074;2022-11-23T16:38:24;4.85;;;2.55;;
18657;SDS011;9458;50.942;5.074;2022-11-23T16:40:55;5.03;;;2.38;;
18657;SDS011;9458;50.942;5.074;2022-11-23T16:43:23;2.63;;;2.08;;
18657;SDS011;9458;50.942;5.074;2022-11-23T16:45:51;4.75;;;2.20;;
18657;SDS011;9458;50.942;5.074;2022-11-23T16:48:39;2.50;;;2.25;;
18657;SDS011;9458;50.942;5.074;2022-11-23T16:51:11;3.53;;;2.30;;
18657;SDS011;9458;50.942;5.074;2022-11-23T16:53:43;4.50;;;2.50;;
18657;SDS011;9458;50.942;5.074;2022-11-23T16:56:17;3.80;;;2.50;;
18657;SDS011;9458;50.942;5.074;2022-11-23T16:58:48;5.00;;;2.70;;
18657;SDS011;9458;50.942;5.074;2022-11-23T17:01:19;4.97;;;2.38;;
18657;SDS011;9458;50.942;5.074;2022-11-23T17:03:48;6.68;;;2.75;;
18657;SDS011;9458;50.942;5.074;2022-11-23T17:06:18;4.90;;;2.38;;
18657;SDS011;9458;50.942;5.074;2022-11-23T17:08:47;5.38;;;2.65;;
18657;SDS011;9458;50.942;5.074;2022-11-23T17:11:17;4.70;;;2.83;;
18657;SDS011;9458;50.942;5.074;2022-11-23T17:13:48;6.82;;;2.70;;
18657;SDS011;9458;50.942;5.074;2022-11-23T17:16:18;4.47;;;2.47;;
18657;SDS011;9458;50.942;5.074;2022-11-23T17:18:48;3.28;;;2.30;;
18657;SDS011;9458;50.942;5.074;2022-11-23T17:21:16;6.32;;;2.80;;
18657;SDS011;9458;50.942;5.074;2022-11-23T17:23:45;6.72;;;2.70;;
18657;SDS011;9458;50.942;5.074;2022-11-23T17:26:27;5.43;;;2.80;;
18657;SDS011;9458;50.942;5.074;2022-11-23T17:29:00;4.85;;;2.38;;
18657;SDS011;9458;50.942;5.074;2022-11-23T17:31:30;3.63;;;2.50;;
18657;SDS011;9458;50.942;5.074;2022-11-23T17:33:58;5.35;;;2.60;;
18657;SDS011;9458;50.942;5.074;2022-11-23T17:36:27;4.78;;;2.65;;
18657;SDS011;9458;50.942;5.074;2022-11-23T17:38:56;5.15;;;2.50;;
18657;SDS011;9458;50.942;5.074;2022-11-23T17:41:24;4.75;;;2.60;;
18657;SDS011;9458;50.942;5.074;2022-11-23T17:43:52;6.43;;;3.05;;
18657;SDS011;9458;50.942;5.074;2022-11-23T17:46:21;11.38;;;3.63;;
18657;SDS011;9458;50.942;5.074;2022-11-23T17:48:50;5.82;;;3.30;;
18657;SDS011;9458;50.942;5.074;2022-11-23T17:51:21;4.80;;;3.05;;
18657;SDS011;9458;50.942;5.074;2022-11-23T17:53:50;5.30;;;2.75;;
18657;SDS011;9458;50.942;5.074;2022-11-23T17:56:18;3.67;;;3.20;;
18657;SDS011;9458;50.942;5.074;2022-11-23T17:58:49;6.57;;;3.00;;
18657;SDS011;9458;50.942;5.074;2022-11-23T18:01:18;4.13;;;2.88;;
18657;SDS011;9458;50.942;5.074;2022-11-23T18:03:48;7.07;;;2.80;;
18657;SDS011;9458;50.942;5.074;2022-11-23T18:06:16;7.63;;;2.65;;
18657;SDS011;9458;50.942;5.074;2022-11-23T18:08:46;4.72;;;3.20;;
18657;SDS011;9458;50.942;5.074;2022-11-23T18:11:19;7.45;;;3.70;;
18657;SDS011;9458;50.942;5.074;2022-11-23T18:14:03;7.35;;;3.65;;
18657;SDS011;9458;50.942;5.074;2022-11-23T18:16:32;6.93;;;3.15;;
18657;SDS011;9458;50.942;5.074;2022-11-23T18:19:01;8.40;;;3.45;;
18657;SDS011;9458;50.942;5.074;2022-11-23T18:21:30;9.73;;;3.30;;
18657;SDS011;9458;50.942;5.074;2022-11-23T18:23:58;5.78;;;3.42;;
18657;SDS011;9458;50.942;5.074;2022-11-23T18:26:27;5.60;;;3.30;;
18657;SDS011;9458;50.942;5.074;2022-11-23T18:28:56;8.82;;;3.40;;
18657;SDS011;9458;50.942;5.074;2022-11-23T18:31:24;10.15;;;3.20;;
18657;SDS011;9458;50.942;5.074;2022-11-23T18:33:52;9.70;;;3.63;;
18657;SDS011;9458;50.942;5.074;2022-11-23T18:36:20;8.88;;;3.15;;
18657;SDS011;9458;50.942;5.074;2022-11-23T18:38:51;9.95;;;3.30;;
18657;SDS011;9458;50.942;5.074;2022-11-23T18:41:18;9.60;;;3.35;;
18657;SDS011;9458;50.942;5.074;2022-11-23T18:43:48;7.57;;;3.00;;
18657;SDS011;9458;50.942;5.074;2022-11-23T18:46:16;7.88;;;3.40;;
18657;SDS011;9458;50.942;5.074;2022-11-23T18:48:46;8.73;;;3.17;;
18657;SDS011;9458;50.942;5.074;2022-11-23T18:51:15;12.52;;;3.72;;
18657;SDS011;9458;50.942;5.074;2022-11-23T18:53:44;11.25;;;4.10;;
18657;SDS011;9458;50.942;5.074;2022-11-23T18:56:14;13.52;;;4.05;;
18657;SDS011;9458;50.942;5.074;2022-11-23T18:58:44;12.23;;;4.05;;
18657;SDS011;9458;50.942;5.074;2022-11-23T19:01:25;16.30;;;3.75;;
18657;SDS011;9458;50.942;5.074;2022-11-23T19:03:53;12.55;;;4.03;;
18657;SDS011;9458;50.942;5.074;2022-11-23T19:06:22;11.85;;;3.67;;
18657;SDS011;9458;50.942;5.074;2022-11-23T19:08:50;7.93;;;4.03;;
18657;SDS011;9458;50.942;5.074;2022-11-23T19:11:22;10.90;;;3.78;;
18657;SDS011;9458;50.942;5.074;2022-11-23T19:13:52;8.55;;;3.78;;
18657;SDS011;9458;50.942;5.074;2022-11-23T19:16:22;8.57;;;4.18;;
18657;SDS011;9458;50.942;5.074;2022-11-23T19:18:54;9.43;;;3.60;;
18657;SDS011;9458;50.942;5.074;2022-11-23T19:21:24;10.05;;;3.95;;
18657;SDS011;9458;50.942;5.074;2022-11-23T19:23:53;10.55;;;3.70;;
18657;SDS011;9458;50.942;5.074;2022-11-23T19:26:22;12.95;;;4.20;;
18657;SDS011;9458;50.942;5.074;2022-11-23T19:28:52;9.27;;;3.67;;
18657;SDS011;9458;50.942;5.074;2022-11-23T19:31:22;10.82;;;4.13;;
18657;SDS011;9458;50.942;5.074;2022-11-23T19:33:51;10.52;;;3.72;;
18657;SDS011;9458;50.942;5.074;2022-11-23T19:36:22;8.27;;;3.60;;
18657;SDS011;9458;50.942;5.074;2022-11-23T19:38:51;12.93;;;3.45;;
18657;SDS011;9458;50.942;5.074;2022-11-23T19:41:21;11.48;;;3.45;;
18657;SDS011;9458;50.942;5.074;2022-11-23T19:43:50;11.82;;;3.30;;
18657;SDS011;9458;50.942;5.074;2022-11-23T19:46:18;7.80;;;3.67;;
18657;SDS011;9458;50.942;5.074;2022-11-23T19:48:48;13.00;;;3.22;;
18657;SDS011;9458;50.942;5.074;2022-11-23T19:51:17;14.07;;;4.13;;
18657;SDS011;9458;50.942;5.074;2022-11-23T19:53:46;15.88;;;3.83;;
18657;SDS011;9458;50.942;5.074;2022-11-23T19:56:16;16.00;;;3.42;;
18657;SDS011;9458;50.942;5.074;2022-11-23T19:58:49;11.55;;;3.40;;
18657;SDS011;9458;50.942;5.074;2022-11-23T20:01:18;17.23;;;3.97;;
18657;SDS011;9458;50.942;5.074;2022-11-23T20:03:50;12.68;;;3.70;;
18657;SDS011;9458;50.942;5.074;2022-11-23T20:06:19;14.52;;;3.70;;
18657;SDS011;9458;50.942;5.074;2022-11-23T20:08:52;13.43;;;3.55;;
18657;SDS011;9458;50.942;5.074;2022-11-23T20:11:19;12.80;;;3.30;;
18657;SDS011;9458;50.942;5.074;2022-11-23T20:13:47;14.95;;;3.78;;
18657;SDS011;9458;50.942;5.074;2022-11-23T20:16:17;17.48;;;3.42;;
18657;SDS011;9458;50.942;5.074;2022-11-23T20:18:46;16.60;;;3.80;;
18657;SDS011;9458;50.942;5.074;2022-11-23T20:21:18;15.23;;;3.75;;
18657;SDS011;9458;50.942;5.074;2022-11-23T20:23:47;9.52;;;3.25;;
18657;SDS011;9458;50.942;5.074;2022-11-23T20:26:20;14.88;;;3.70;;
18657;SDS011;9458;50.942;5.074;2022-11-23T20:28:49;16.38;;;3.20;;
18657;SDS011;9458;50.942;5.074;2022-11-23T20:31:18;10.73;;;3.05;;
18657;SDS011;9458;50.942;5.074;2022-11-23T20:33:47;12.95;;;3.42;;
18657;SDS011;9458;50.942;5.074;2022-11-23T20:36:18;16.70;;;3.40;;
18657;SDS011;9458;50.942;5.074;2022-11-23T20:38:47;15.30;;;3.80;;
18657;SDS011;9458;50.942;5.074;2022-11-23T20:41:16;11.80;;;3.30;;
18657;SDS011;9458;50.942;5.074;2022-11-23T20:43:46;13.85;;;3.80;;
18657;SDS011;9458;50.942;5.074;2022-11-23T20:46:15;17.48;;;3.70;;
18657;SDS011;9458;50.942;5.074;2022-11-23T20:48:43;17.52;;;4.07;;
18657;SDS011;9458;50.942;5.074;2022-11-23T20:51:13;14.52;;;3.45;;
18657;SDS011;9458;50.942;5.074;2022-11-23T20:53:44;17.15;;;3.50;;
18657;SDS011;9458;50.942;5.074;2022-11-23T20:56:14;14.05;;;3.40;;
18657;SDS011;9458;50.942;5.074;2022-11-23T20:58:45;13.35;;;3.28;;
18657;SDS011;9458;50.942;5.074;2022-11-23T21:01:14;9.63;;;3.72;;
18657;SDS011;9458;50.942;5.074;2022-11-23T21:03:47;14.85;;;4.07;;
18657;SDS011;9458;50.942;5.074;2022-11-23T21:06:18;21.35;;;4.07;;
18657;SDS011;9458;50.942;5.074;2022-11-23T21:08:47;18.30;;;3.88;;
18657;SDS011;9458;50.942;5.074;2022-11-23T21:11:17;17.13;;;3.78;;
18657;SDS011;9458;50.942;5.074;2022-11-23T21:14:04;12.70;;;3.40;;
18657;SDS011;9458;50.942;5.074;2022-11-23T21:16:34;18.02;;;3.35;;
18657;SDS011;9458;50.942;5.074;2022-11-23T21:19:03;14.70;;;2.95;;
18657;SDS011;9458;50.942;5.074;2022-11-23T21:21:33;21.38;;;4.35;;
18657;SDS011;9458;50.942;5.074;2022-11-23T21:24:03;24.13;;;3.78;;
18657;SDS011;9458;50.942;5.074;2022-11-23T21:26:31;14.80;;;3.42;;
18657;SDS011;9458;50.942;5.074;2022-11-23T21:29:00;14.38;;;3.00;;
18657;SDS011;9458;50.942;5.074;2022-11-23T21:31:28;14.05;;;3.42;;
18657;SDS011;9458;50.942;5.074;2022-11-23T21:33:57;14.90;;;3.10;;
18657;SDS011;9458;50.942;5.074;2022-11-23T21:36:35;16.38;;;3.40;;
18657;SDS011;9458;50.942;5.074;2022-11-23T21:39:06;16.63;;;3.65;;
18657;SDS011;9458;50.942;5.074;2022-11-23T21:41:35;14.70;;;3.35;;
18657;SDS011;9458;50.942;5.074;2022-11-23T21:44:05;19.98;;;3.13;;
18657;SDS011;9458;50.942;5.074;2022-11-23T21:46:33;16.27;;;3.50;;
18657;SDS011;9458;50.942;5.074;2022-11-23T21:49:02;12.70;;;2.55;;
18657;SDS011;9458;50.942;5.074;2022-11-23T21:51:31;15.48;;;3.70;;
18657;SDS011;9458;50.942;5.074;2022-11-23T21:54:01;12.90;;;2.90;;
18657;SDS011;9458;50.942;5.074;2022-11-23T21:56:32;18.05;;;3.20;;
18657;SDS011;9458;50.942;5.074;2022-11-23T21:59:01;15.20;;;3.15;;
18657;SDS011;9458;50.942;5.074;2022-11-23T22:01:29;15.77;;;3.28;;
18657;SDS011;9458;50.942;5.074;2022-11-23T22:03:59;12.32;;;2.75;;
18657;SDS011;9458;50.942;5.074;2022-11-23T22:06:28;13.55;;;3.10;;
18657;SDS011;9458;50.942;5.074;2022-11-23T22:08:57;18.70;;;3.33;;
18657;SDS011;9458;50.942;5.074;2022-11-23T22:11:27;10.23;;;2.53;;
18657;SDS011;9458;50.942;5.074;2022-11-23T22:14:00;16.05;;;3.30;;
18657;SDS011;9458;50.942;5.074;2022-11-23T22:16:30;11.10;;;2.88;;
18657;SDS011;9458;50.942;5.074;2022-11-23T22:19:02;15.93;;;2.72;;
18657;SDS011;9458;50.942;5.074;2022-11-23T22:21:31;15.80;;;2.75;;
18657;SDS011;9458;50.942;5.074;2022-11-23T22:24:00;13.23;;;3.20;;
18657;SDS011;9458;50.942;5.074;2022-11-23T22:26:29;14.50;;;2.85;;
18657;SDS011;9458;50.942;5.074;2022-11-23T22:28:58;15.13;;;3.15;;
18657;SDS011;9458;50.942;5.074;2022-11-23T22:31:32;18.38;;;2.75;;
18657;SDS011;9458;50.942;5.074;2022-11-23T22:34:01;12.13;;;2.50;;
18657;SDS011;9458;50.942;5.074;2022-11-23T22:36:30;13.05;;;2.72;;
18657;SDS011;9458;50.942;5.074;2022-11-23T22:39:00;10.82;;;2.35;;
18657;SDS011;9458;50.942;5.074;2022-11-23T22:41:30;17.08;;;3.33;;
18657;SDS011;9458;50.942;5.074;2022-11-23T22:44:03;11.35;;;2.55;;
18657;SDS011;9458;50.942;5.074;2022-11-23T22:46:32;14.23;;;2.92;;
18657;SDS011;9458;50.942;5.074;2022-11-23T22:49:00;19.33;;;2.90;;
18657;SDS011;9458;50.942;5.074;2022-11-23T22:51:29;12.02;;;3.30;;
18657;SDS011;9458;50.942;5.074;2022-11-23T22:54:01;14.15;;;2.83;;
18657;SDS011;9458;50.942;5.074;2022-11-23T22:56:29;12.60;;;2.22;;
18657;SDS011;9458;50.942;5.074;2022-11-23T22:58:58;12.32;;;2.85;;
18657;SDS011;9458;50.942;5.074;2022-11-23T23:01:36;15.45;;;2.53;;
18657;SDS011;9458;50.942;5.074;2022-11-23T23:04:03;12.93;;;2.95;;
18657;SDS011;9458;50.942;5.074;2022-11-23T23:06:31;13.23;;;2.70;;
18657;SDS011;9458;50.942;5.074;2022-11-23T23:09:03;9.70;;;2.60;;
18657;SDS011;9458;50.942;5.074;2022-11-23T23:11:34;11.93;;;3.00;;
18657;SDS011;9458;50.942;5.074;2022-11-23T23:14:04;15.93;;;2.90;;
18657;SDS011;9458;50.942;5.074;2022-11-23T23:16:32;8.60;;;1.67;;
18657;SDS011;9458;50.942;5.074;2022-11-23T23:19:03;13.60;;;2.70;;
18657;SDS011;9458;50.942;5.074;2022-11-23T23:21:33;10.60;;;2.13;;
18657;SDS011;9458;50.942;5.074;2022-11-23T23:24:01;12.23;;;2.17;;
18657;SDS011;9458;50.942;5.074;2022-11-23T23:26:30;9.50;;;2.35;;
18657;SDS011;9458;50.942;5.074;2022-11-23T23:28:59;10.50;;;2.70;;
18657;SDS011;9458;50.942;5.074;2022-11-23T23:31:28;12.13;;;2.45;;
18657;SDS011;9458;50.942;5.074;2022-11-23T23:33:57;13.35;;;2.60;;
18657;SDS011;9458;50.942;5.074;2022-11-23T23:36:28;11.57;;;2.20;;
18657;SDS011;9458;50.942;5.074;2022-11-23T23:38:57;11.40;;;2.20;;
18657;SDS011;9458;50.942;5.074;2022-11-23T23:41:28;10.40;;;2.78;;
18657;SDS011;9458;50.942;5.074;2022-11-23T23:43:56;7.97;;;2.10;;
18657;SDS011;9458;50.942;5.074;2022-11-23T23:46:24;12.73;;;2.50;;
18657;SDS011;9458;50.942;5.074;2022-11-23T23:48:53;8.98;;;2.38;;
18657;SDS011;9458;50.942;5.074;2022-11-23T23:51:21;12.77;;;2.30;;
18657;SDS011;9458;50.942;5.074;2022-11-23T23:53:55;12.60;;;2.33;;
18657;SDS011;9458;50.942;5.074;2022-11-23T23:56:24;11.15;;;2.33;;
18657;SDS011;9458;50.942;5.074;2022-11-23T23:58:57;8.82;;;2.50;;
